sensor_id;sensor_type;location;lat;lon;timestamp;pressure;altitude;pressure_sealevel;temperature;humidity
21803;BME280;18591;47.080;22.214;2023-11-21T00:00:01;99131.44;;;11.57;69.14
21803;BME280;18591;47.080;22.214;2023-11-21T00:02:13;99134.34;;;11.52;69.45
21803;BME280;18591;47.080;22.214;2023-11-21T00:04:16;99136.47;;;11.45;69.30
21803;BME280;18591;47.080;22.214;2023-11-21T00:06:18;99135.75;;;11.42;69.18
21803;BME280;18591;47.080;22.214;2023-11-21T00:08:22;99150.72;;;11.47;69.29
21803;BME280;18591;47.080;22.214;2023-11-21T00:10:24;99145.44;;;11.46;68.97
21803;BME280;18591;47.080;22.214;2023-11-21T00:12:27;99155.28;;;11.45;69.19
21803;BME280;18591;47.080;22.214;2023-11-21T00:14:31;99152.59;;;11.45;69.17
21803;BME280;18591;47.080;22.214;2023-11-21T00:16:34;99154.63;;;11.40;68.91
21803;BME280;18591;47.080;22.214;2023-11-21T00:18:36;99150.53;;;11.33;69.65
21803;BME280;18591;47.080;22.214;2023-11-21T00:20:39;99143.38;;;11.32;68.93
21803;BME280;18591;47.080;22.214;2023-11-21T00:22:41;99146.44;;;11.24;69.35
21803;BME280;18591;47.080;22.214;2023-11-21T00:24:48;99155.38;;;11.25;69.28
21803;BME280;18591;47.080;22.214;2023-11-21T00:26:51;99148.25;;;11.24;69.04
21803;BME280;18591;47.080;22.214;2023-11-21T00:28:54;99149.78;;;11.29;68.73
21803;BME280;18591;47.080;22.214;2023-11-21T00:30:56;99149.88;;;11.28;68.77
21803;BME280;18591;47.080;22.214;2023-11-21T00:32:59;99157.19;;;11.24;69.17
21803;BME280;18591;47.080;22.214;2023-11-21T00:35:02;99153.56;;;11.25;68.99
21803;BME280;18591;47.080;22.214;2023-11-21T00:37:05;99160.97;;;11.20;69.19
21803;BME280;18591;47.080;22.214;2023-11-21T00:39:07;99160.38;;;11.14;69.03
21803;BME280;18591;47.080;22.214;2023-11-21T00:41:10;99161.59;;;11.06;69.23
21803;BME280;18591;47.080;22.214;2023-11-21T00:43:13;99159.91;;;10.85;69.55
21803;BME280;18591;47.080;22.214;2023-11-21T00:45:16;99157.44;;;10.99;69.57
21803;BME280;18591;47.080;22.214;2023-11-21T00:47:18;99157.75;;;10.93;69.37
21803;BME280;18591;47.080;22.214;2023-11-21T00:49:21;99155.72;;;10.98;69.58
21803;BME280;18591;47.080;22.214;2023-11-21T00:51:24;99161.03;;;11.00;68.91
21803;BME280;18591;47.080;22.214;2023-11-21T00:53:26;99161.97;;;10.99;69.13
21803;BME280;18591;47.080;22.214;2023-11-21T00:55:29;99165.59;;;10.98;69.03
21803;BME280;18591;47.080;22.214;2023-11-21T00:57:33;99166.63;;;10.95;68.75
21803;BME280;18591;47.080;22.214;2023-11-21T00:59:35;99163.06;;;10.95;68.70
21803;BME280;18591;47.080;22.214;2023-11-21T01:01:37;99168.91;;;10.84;69.02
21803;BME280;18591;47.080;22.214;2023-11-21T01:03:40;99177.78;;;10.86;68.94
21803;BME280;18591;47.080;22.214;2023-11-21T01:05:43;99171.47;;;10.87;68.87
21803;BME280;18591;47.080;22.214;2023-11-21T01:07:45;99175.16;;;10.84;68.69
21803;BME280;18591;47.080;22.214;2023-11-21T01:09:48;99177.78;;;10.86;68.73
21803;BME280;18591;47.080;22.214;2023-11-21T01:11:50;99174.56;;;10.78;68.73
21803;BME280;18591;47.080;22.214;2023-11-21T01:13:54;99171.88;;;10.78;68.71
21803;BME280;18591;47.080;22.214;2023-11-21T01:15:56;99170.94;;;10.58;68.99
21803;BME280;18591;47.080;22.214;2023-11-21T01:17:59;99171.59;;;10.63;69.46
21803;BME280;18591;47.080;22.214;2023-11-21T01:20:02;99172.06;;;10.73;69.14
21803;BME280;18591;47.080;22.214;2023-11-21T01:22:08;99162.28;;;10.72;68.73
21803;BME280;18591;47.080;22.214;2023-11-21T01:24:11;99156.38;;;10.64;69.14
21803;BME280;18591;47.080;22.214;2023-11-21T01:26:14;99158.94;;;10.67;69.00
21803;BME280;18591;47.080;22.214;2023-11-21T01:28:16;99159.66;;;10.71;69.16
21803;BME280;18591;47.080;22.214;2023-11-21T01:30:19;99156.38;;;10.64;68.75
21803;BME280;18591;47.080;22.214;2023-11-21T01:32:21;99158.31;;;10.60;69.23
21803;BME280;18591;47.080;22.214;2023-11-21T01:34:24;99152.59;;;10.48;69.51
21803;BME280;18591;47.080;22.214;2023-11-21T01:36:31;99152.47;;;10.51;69.44
21803;BME280;18591;47.080;22.214;2023-11-21T01:38:34;99145.06;;;10.56;69.57
21803;BME280;18591;47.080;22.214;2023-11-21T01:40:37;99146.91;;;10.55;69.62
21803;BME280;18591;47.080;22.214;2023-11-21T01:42:40;99142.63;;;10.51;69.67
21803;BME280;18591;47.080;22.214;2023-11-21T01:44:42;99146.75;;;10.58;69.46
21803;BME280;18591;47.080;22.214;2023-11-21T01:46:45;99143.97;;;10.61;69.51
21803;BME280;18591;47.080;22.214;2023-11-21T01:48:52;99139.59;;;10.59;69.53
21803;BME280;18591;47.080;22.214;2023-11-21T01:50:56;99137.47;;;10.65;69.50
21803;BME280;18591;47.080;22.214;2023-11-21T01:52:58;99134.44;;;10.73;69.06
21803;BME280;18591;47.080;22.214;2023-11-21T01:55:03;99134.31;;;10.76;69.12
21803;BME280;18591;47.080;22.214;2023-11-21T01:57:07;99128.06;;;10.76;69.05
21803;BME280;18591;47.080;22.214;2023-11-21T01:59:10;99125.38;;;10.76;69.27
21803;BME280;18591;47.080;22.214;2023-11-21T02:01:14;99132.78;;;10.71;69.48
21803;BME280;18591;47.080;22.214;2023-11-21T02:03:17;99127.50;;;10.69;69.45
21803;BME280;18591;47.080;22.214;2023-11-21T02:05:20;99126.25;;;10.76;69.37
21803;BME280;18591;47.080;22.214;2023-11-21T02:07:23;99134.31;;;10.76;69.22
21803;BME280;18591;47.080;22.214;2023-11-21T02:09:27;99137.13;;;10.73;69.25
21803;BME280;18591;47.080;22.214;2023-11-21T02:11:31;99126.69;;;10.67;69.25
21803;BME280;18591;47.080;22.214;2023-11-21T02:13:36;99134.81;;;10.65;69.38
21803;BME280;18591;47.080;22.214;2023-11-21T02:15:38;99128.41;;;10.68;69.53
21803;BME280;18591;47.080;22.214;2023-11-21T02:17:42;99127.59;;;10.66;69.29
21803;BME280;18591;47.080;22.214;2023-11-21T02:19:49;99120.56;;;10.63;69.33
21803;BME280;18591;47.080;22.214;2023-11-21T02:21:53;99118.22;;;10.56;69.55
21803;BME280;18591;47.080;22.214;2023-11-21T02:23:56;99117.16;;;10.60;69.41
21803;BME280;18591;47.080;22.214;2023-11-21T02:25:59;99122.47;;;10.61;69.40
21803;BME280;18591;47.080;22.214;2023-11-21T02:28:06;99121.53;;;10.42;69.42
21803;BME280;18591;47.080;22.214;2023-11-21T02:30:10;99122.91;;;10.51;69.40
21803;BME280;18591;47.080;22.214;2023-11-21T02:32:15;99118.31;;;10.54;69.40
21803;BME280;18591;47.080;22.214;2023-11-21T02:34:22;99116.69;;;10.50;68.79
21803;BME280;18591;47.080;22.214;2023-11-21T02:36:25;99115.69;;;10.53;68.75
21803;BME280;18591;47.080;22.214;2023-11-21T02:38:28;99125.56;;;10.52;68.75
21803;BME280;18591;47.080;22.214;2023-11-21T02:40:30;99126.41;;;10.53;68.78
21803;BME280;18591;47.080;22.214;2023-11-21T02:42:33;99115.75;;;10.51;68.41
21803;BME280;18591;47.080;22.214;2023-11-21T02:44:36;99122.19;;;10.47;68.69
21803;BME280;18591;47.080;22.214;2023-11-21T02:46:39;99120.53;;;10.44;68.63
21803;BME280;18591;47.080;22.214;2023-11-21T02:48:42;99122.81;;;10.33;68.55
21803;BME280;18591;47.080;22.214;2023-11-21T02:50:45;99123.13;;;10.25;68.56
21803;BME280;18591;47.080;22.214;2023-11-21T02:52:48;99126.41;;;10.32;68.20
21803;BME280;18591;47.080;22.214;2023-11-21T02:54:51;99129.34;;;10.28;68.49
21803;BME280;18591;47.080;22.214;2023-11-21T02:56:53;99126.81;;;10.23;68.09
21803;BME280;18591;47.080;22.214;2023-11-21T02:58:56;99117.22;;;10.17;68.12
21803;BME280;18591;47.080;22.214;2023-11-21T03:00:59;99119.75;;;10.20;67.97
21803;BME280;18591;47.080;22.214;2023-11-21T03:03:01;99118.41;;;10.10;67.69
21803;BME280;18591;47.080;22.214;2023-11-21T03:05:06;99123.38;;;10.19;68.01
21803;BME280;18591;47.080;22.214;2023-11-21T03:07:09;99114.31;;;10.22;68.01
21803;BME280;18591;47.080;22.214;2023-11-21T03:09:12;99117.88;;;10.22;67.61
21803;BME280;18591;47.080;22.214;2023-11-21T03:11:14;99106.47;;;10.17;67.48
21803;BME280;18591;47.080;22.214;2023-11-21T03:13:17;99106.66;;;10.13;67.55
21803;BME280;18591;47.080;22.214;2023-11-21T03:15:19;99110.41;;;10.09;67.51
21803;BME280;18591;47.080;22.214;2023-11-21T03:17:22;99114.09;;;10.06;67.42
21803;BME280;18591;47.080;22.214;2023-11-21T03:19:24;99108.69;;;10.08;67.33
21803;BME280;18591;47.080;22.214;2023-11-21T03:21:27;99111.41;;;10.06;67.56
21803;BME280;18591;47.080;22.214;2023-11-21T03:23:31;99110.81;;;9.99;67.23
21803;BME280;18591;47.080;22.214;2023-11-21T03:25:34;99110.88;;;9.98;67.42
21803;BME280;18591;47.080;22.214;2023-11-21T03:27:37;99107.19;;;10.00;67.48
21803;BME280;18591;47.080;22.214;2023-11-21T03:29:41;99114.63;;;9.94;67.45
21803;BME280;18591;47.080;22.214;2023-11-21T03:31:44;99114.50;;;9.97;67.43
21803;BME280;18591;47.080;22.214;2023-11-21T03:33:46;99121.81;;;9.93;67.20
21803;BME280;18591;47.080;22.214;2023-11-21T03:35:49;99108.38;;;9.93;67.44
21803;BME280;18591;47.080;22.214;2023-11-21T03:37:52;99106.56;;;9.94;67.18
21803;BME280;18591;47.080;22.214;2023-11-21T03:39:55;99108.34;;;9.95;67.51
21803;BME280;18591;47.080;22.214;2023-11-21T03:41:59;99104.03;;;9.91;67.26
21803;BME280;18591;47.080;22.214;2023-11-21T03:44:01;99104.97;;;9.90;67.55
21803;BME280;18591;47.080;22.214;2023-11-21T03:46:04;99101.47;;;9.88;67.56
21803;BME280;18591;47.080;22.214;2023-11-21T03:48:07;99102.41;;;9.87;67.24
21803;BME280;18591;47.080;22.214;2023-11-21T03:50:12;99102.47;;;9.85;67.10
21803;BME280;18591;47.080;22.214;2023-11-21T03:52:15;99100.66;;;9.86;67.57
21803;BME280;18591;47.080;22.214;2023-11-21T03:54:17;99114.16;;;9.84;67.22
21803;BME280;18591;47.080;22.214;2023-11-21T03:56:20;99122.13;;;9.86;67.30
21803;BME280;18591;47.080;22.214;2023-11-21T03:58:25;99116.84;;;9.84;67.10
21803;BME280;18591;47.080;22.214;2023-11-21T04:00:28;99122.25;;;9.82;67.31
21803;BME280;18591;47.080;22.214;2023-11-21T04:02:30;99125.75;;;9.85;67.22
21803;BME280;18591;47.080;22.214;2023-11-21T04:04:34;99123.25;;;9.80;67.04
21803;BME280;18591;47.080;22.214;2023-11-21T04:06:37;99119.84;;;9.76;67.18
21803;BME280;18591;47.080;22.214;2023-11-21T04:08:40;99117.41;;;9.70;66.76
21803;BME280;18591;47.080;22.214;2023-11-21T04:10:42;99123.84;;;9.66;66.87
21803;BME280;18591;47.080;22.214;2023-11-21T04:12:45;99124.88;;;9.62;67.10
21803;BME280;18591;47.080;22.214;2023-11-21T04:14:48;99126.63;;;9.63;67.28
21803;BME280;18591;47.080;22.214;2023-11-21T04:16:50;99101.69;;;9.61;66.62
21803;BME280;18591;47.080;22.214;2023-11-21T04:18:53;99107.28;;;9.55;66.73
21803;BME280;18591;47.080;22.214;2023-11-21T04:20:55;99113.75;;;9.51;66.93
21803;BME280;18591;47.080;22.214;2023-11-21T04:22:58;99119.09;;;9.51;66.81
21803;BME280;18591;47.080;22.214;2023-11-21T04:25:00;99121.97;;;9.46;67.28
21803;BME280;18591;47.080;22.214;2023-11-21T04:27:03;99108.59;;;9.45;66.66
21803;BME280;18591;47.080;22.214;2023-11-21T04:29:06;99111.28;;;9.45;66.64
21803;BME280;18591;47.080;22.214;2023-11-21T04:31:09;99106.75;;;9.47;66.92
21803;BME280;18591;47.080;22.214;2023-11-21T04:33:11;99109.88;;;9.36;66.19
21803;BME280;18591;47.080;22.214;2023-11-21T04:35:14;99101.03;;;9.32;66.38
21803;BME280;18591;47.080;22.214;2023-11-21T04:37:16;99098.28;;;9.35;66.37
21803;BME280;18591;47.080;22.214;2023-11-21T04:39:19;99099.19;;;9.34;66.56
21803;BME280;18591;47.080;22.214;2023-11-21T04:41:22;99094.69;;;9.35;66.32
21803;BME280;18591;47.080;22.214;2023-11-21T04:43:24;99096.63;;;9.31;66.31
21803;BME280;18591;47.080;22.214;2023-11-21T04:45:27;99093.91;;;9.33;66.55
21803;BME280;18591;47.080;22.214;2023-11-21T04:47:29;99097.50;;;9.32;66.46
21803;BME280;18591;47.080;22.214;2023-11-21T04:49:32;99091.28;;;9.31;66.74
21803;BME280;18591;47.080;22.214;2023-11-21T04:51:34;99085.03;;;9.31;66.72
21803;BME280;18591;47.080;22.214;2023-11-21T04:53:37;99092.31;;;9.27;66.46
21803;BME280;18591;47.080;22.214;2023-11-21T04:55:40;99091.31;;;9.30;66.47
21803;BME280;18591;47.080;22.214;2023-11-21T04:57:43;99092.28;;;9.29;66.63
21803;BME280;18591;47.080;22.214;2023-11-21T04:59:45;99090.75;;;9.22;67.07
21803;BME280;18591;47.080;22.214;2023-11-21T05:01:48;99087.94;;;9.25;66.71
21803;BME280;18591;47.080;22.214;2023-11-21T05:03:50;99089.78;;;9.24;67.02
21803;BME280;18591;47.080;22.214;2023-11-21T05:05:53;99085.34;;;9.23;66.68
21803;BME280;18591;47.080;22.214;2023-11-21T05:07:55;99080.84;;;9.24;66.41
21803;BME280;18591;47.080;22.214;2023-11-21T05:09:58;99090.75;;;9.22;66.43
21803;BME280;18591;47.080;22.214;2023-11-21T05:12:01;99093.25;;;9.04;66.89
21803;BME280;18591;47.080;22.214;2023-11-21T05:14:04;99090.38;;;9.09;66.96
21803;BME280;18591;47.080;22.214;2023-11-21T05:16:07;99087.91;;;9.04;67.12
21803;BME280;18591;47.080;22.214;2023-11-21T05:18:10;99103.16;;;9.02;67.36
21803;BME280;18591;47.080;22.214;2023-11-21T05:20:14;99099.34;;;9.08;67.27
21803;BME280;18591;47.080;22.214;2023-11-21T05:22:20;99094.75;;;9.11;67.46
21803;BME280;18591;47.080;22.214;2023-11-21T05:24:23;99100.06;;;9.13;67.29
21803;BME280;18591;47.080;22.214;2023-11-21T05:26:25;99101.69;;;9.17;66.74
21803;BME280;18591;47.080;22.214;2023-11-21T05:28:28;99102.78;;;9.11;67.03
21803;BME280;18591;47.080;22.214;2023-11-21T05:30:31;99094.75;;;9.11;66.83
21803;BME280;18591;47.080;22.214;2023-11-21T05:32:33;99097.53;;;9.08;66.69
21803;BME280;18591;47.080;22.214;2023-11-21T05:34:36;99098.19;;;9.15;66.81
21803;BME280;18591;47.080;22.214;2023-11-21T05:36:38;99099.22;;;9.11;66.67
21803;BME280;18591;47.080;22.214;2023-11-21T05:38:41;99110.72;;;9.14;66.79
21803;BME280;18591;47.080;22.214;2023-11-21T05:40:43;99112.59;;;9.12;66.35
21803;BME280;18591;47.080;22.214;2023-11-21T05:42:46;99119.16;;;9.04;66.96
21803;BME280;18591;47.080;22.214;2023-11-21T05:44:49;99120.16;;;9.01;67.21
21803;BME280;18591;47.080;22.214;2023-11-21T05:46:51;99119.16;;;9.04;66.88
21803;BME280;18591;47.080;22.214;2023-11-21T05:48:54;99114.88;;;9.00;66.90
21803;BME280;18591;47.080;22.214;2023-11-21T05:50:57;99117.25;;;9.07;66.79
21803;BME280;18591;47.080;22.214;2023-11-21T05:52:59;99119.81;;;9.10;67.00
21803;BME280;18591;47.080;22.214;2023-11-21T05:55:03;99118.84;;;9.11;66.50
21803;BME280;18591;47.080;22.214;2023-11-21T05:57:11;99125.03;;;9.13;66.70
21803;BME280;18591;47.080;22.214;2023-11-21T05:59:14;99128.31;;;8.98;67.09
21803;BME280;18591;47.080;22.214;2023-11-21T06:01:17;99135.00;;;9.10;66.74
21803;BME280;18591;47.080;22.214;2023-11-21T06:03:20;99118.97;;;9.08;67.12
21803;BME280;18591;47.080;22.214;2023-11-21T06:05:24;99123.72;;;9.02;67.01
21803;BME280;18591;47.080;22.214;2023-11-21T06:07:27;99133.31;;;9.07;66.66
21803;BME280;18591;47.080;22.214;2023-11-21T06:09:34;99130.66;;;9.07;66.98
21803;BME280;18591;47.080;22.214;2023-11-21T06:11:36;99130.53;;;9.10;66.85
21803;BME280;18591;47.080;22.214;2023-11-21T06:13:39;99130.66;;;9.07;66.80
21803;BME280;18591;47.080;22.214;2023-11-21T06:15:42;99129.69;;;9.08;67.00
21803;BME280;18591;47.080;22.214;2023-11-21T06:17:44;99133.66;;;8.98;67.00
21803;BME280;18591;47.080;22.214;2023-11-21T06:19:51;99127.16;;;9.05;67.35
21803;BME280;18591;47.080;22.214;2023-11-21T06:21:55;99128.88;;;9.06;66.98
21803;BME280;18591;47.080;22.214;2023-11-21T06:23:57;99134.19;;;9.08;67.14
21803;BME280;18591;47.080;22.214;2023-11-21T06:26:00;99136.81;;;9.09;67.01
21803;BME280;18591;47.080;22.214;2023-11-21T06:28:02;99134.03;;;9.12;67.12
21803;BME280;18591;47.080;22.214;2023-11-21T06:30:06;99133.91;;;9.15;67.00
21803;BME280;18591;47.080;22.214;2023-11-21T06:32:09;99139.13;;;9.19;67.11
21803;BME280;18591;47.080;22.214;2023-11-21T06:34:11;99139.13;;;9.19;67.26
21803;BME280;18591;47.080;22.214;2023-11-21T06:36:14;99143.66;;;9.16;67.70
21803;BME280;18591;47.080;22.214;2023-11-21T06:38:17;99150.59;;;9.22;67.29
21803;BME280;18591;47.080;22.214;2023-11-21T06:40:19;99139.38;;;9.12;68.21
21803;BME280;18591;47.080;22.214;2023-11-21T06:42:23;99137.19;;;9.22;68.13
21803;BME280;18591;47.080;22.214;2023-11-21T06:44:26;99134.16;;;9.31;67.58
21803;BME280;18591;47.080;22.214;2023-11-21T06:46:28;99140.88;;;9.20;68.77
21803;BME280;18591;47.080;22.214;2023-11-21T06:48:31;99143.06;;;9.32;68.27
21803;BME280;18591;47.080;22.214;2023-11-21T06:50:33;99136.19;;;9.48;68.68
21803;BME280;18591;47.080;22.214;2023-11-21T06:52:36;99140.91;;;9.42;69.29
21803;BME280;18591;47.080;22.214;2023-11-21T06:54:38;99148.22;;;9.60;68.92
21803;BME280;18591;47.080;22.214;2023-11-21T06:56:41;99143.41;;;9.68;69.09
21803;BME280;18591;47.080;22.214;2023-11-21T06:58:45;99140.09;;;9.84;69.23
21803;BME280;18591;47.080;22.214;2023-11-21T07:00:48;99137.91;;;9.93;68.89
21803;BME280;18591;47.080;22.214;2023-11-21T07:02:55;99133.03;;;10.03;69.15
21803;BME280;18591;47.080;22.214;2023-11-21T07:04:57;99132.56;;;10.14;68.80
21803;BME280;18591;47.080;22.214;2023-11-21T07:07:00;99127.63;;;10.25;69.43
21803;BME280;18591;47.080;22.214;2023-11-21T07:09:03;99124.50;;;10.36;68.54
21803;BME280;18591;47.080;22.214;2023-11-21T07:11:05;99121.34;;;10.46;68.45
21803;BME280;18591;47.080;22.214;2023-11-21T07:13:08;99125.50;;;10.54;68.44
21803;BME280;18591;47.080;22.214;2023-11-21T07:15:14;99125.94;;;10.63;68.29
21803;BME280;18591;47.080;22.214;2023-11-21T07:17:17;99132.78;;;10.71;68.50
21803;BME280;18591;47.080;22.214;2023-11-21T07:19:20;99128.16;;;10.74;68.16
21803;BME280;18591;47.080;22.214;2023-11-21T07:21:23;99134.09;;;10.81;68.14
21803;BME280;18591;47.080;22.214;2023-11-21T07:23:25;99138.41;;;10.85;68.10
21803;BME280;18591;47.080;22.214;2023-11-21T07:25:28;99141.75;;;10.90;68.26
21803;BME280;18591;47.080;22.214;2023-11-21T07:27:30;99137.25;;;10.90;68.49
21803;BME280;18591;47.080;22.214;2023-11-21T07:29:33;99138.72;;;10.98;68.54
21803;BME280;18591;47.080;22.214;2023-11-21T07:31:36;99137.56;;;11.03;68.30
21803;BME280;18591;47.080;22.214;2023-11-21T07:33:39;99135.69;;;11.05;68.92
21803;BME280;18591;47.080;22.214;2023-11-21T07:35:41;99138.28;;;11.07;68.60
21803;BME280;18591;47.080;22.214;2023-11-21T07:37:43;99136.03;;;11.17;68.39
21803;BME280;18591;47.080;22.214;2023-11-21T07:39:46;99134.97;;;11.21;68.84
21803;BME280;18591;47.080;22.214;2023-11-21T07:41:49;99148.91;;;11.29;68.57
21803;BME280;18591;47.080;22.214;2023-11-21T07:43:52;99150.44;;;11.34;68.60
21803;BME280;18591;47.080;22.214;2023-11-21T07:45:55;99147.59;;;11.38;68.44
21803;BME280;18591;47.080;22.214;2023-11-21T07:47:58;99157.41;;;11.39;68.68
21803;BME280;18591;47.080;22.214;2023-11-21T07:50:03;99157.28;;;11.42;68.35
21803;BME280;18591;47.080;22.214;2023-11-21T07:52:06;99143.50;;;11.48;68.42
21803;BME280;18591;47.080;22.214;2023-11-21T07:54:09;99142.44;;;11.52;68.00
21803;BME280;18591;47.080;22.214;2023-11-21T07:56:12;99141.19;;;11.59;68.04
21803;BME280;18591;47.080;22.214;2023-11-21T07:58:15;99144.59;;;11.63;68.34
21803;BME280;18591;47.080;22.214;2023-11-21T08:00:18;99145.34;;;11.66;68.40
21803;BME280;18591;47.080;22.214;2023-11-21T08:02:20;99146.03;;;11.70;68.29
21803;BME280;18591;47.080;22.214;2023-11-21T08:04:23;99144.06;;;11.73;67.89
21803;BME280;18591;47.080;22.214;2023-11-21T08:06:25;99153.81;;;11.76;68.29
21803;BME280;18591;47.080;22.214;2023-11-21T08:08:28;99156.50;;;11.76;68.24
21803;BME280;18591;47.080;22.214;2023-11-21T08:10:31;99157.88;;;11.85;68.42
21803;BME280;18591;47.080;22.214;2023-11-21T08:12:33;99160.28;;;11.91;68.02
21803;BME280;18591;47.080;22.214;2023-11-21T08:14:37;99154.69;;;11.95;68.25
21803;BME280;18591;47.080;22.214;2023-11-21T08:16:41;99156.19;;;12.01;68.37
21803;BME280;18591;47.080;22.214;2023-11-21T08:18:43;99161.25;;;12.07;68.38
21803;BME280;18591;47.080;22.214;2023-11-21T08:20:46;99160.88;;;12.15;67.89
21803;BME280;18591;47.080;22.214;2023-11-21T08:22:51;99155.34;;;12.18;68.25
21803;BME280;18591;47.080;22.214;2023-11-21T08:24:59;99152.16;;;12.27;67.79
21803;BME280;18591;47.080;22.214;2023-11-21T08:27:01;99153.44;;;12.37;67.99
21803;BME280;18591;47.080;22.214;2023-11-21T08:29:04;99160.09;;;12.48;67.78
21803;BME280;18591;47.080;22.214;2023-11-21T08:31:09;99163.25;;;12.56;67.54
21803;BME280;18591;47.080;22.214;2023-11-21T08:33:14;99155.56;;;12.66;67.77
21803;BME280;18591;47.080;22.214;2023-11-21T08:35:16;99157.69;;;12.76;67.96
21803;BME280;18591;47.080;22.214;2023-11-21T08:37:19;99158.88;;;12.88;68.14
21803;BME280;18591;47.080;22.214;2023-11-21T08:39:22;99160.53;;;12.91;67.67
21803;BME280;18591;47.080;22.214;2023-11-21T08:41:26;99159.06;;;13.01;67.40
21803;BME280;18591;47.080;22.214;2023-11-21T08:43:30;99164.84;;;13.11;66.81
21803;BME280;18591;47.080;22.214;2023-11-21T08:45:32;99165.13;;;13.22;65.80
21803;BME280;18591;47.080;22.214;2023-11-21T08:47:36;99163.00;;;13.28;66.02
21803;BME280;18591;47.080;22.214;2023-11-21T08:49:39;99159.09;;;13.34;65.40
21803;BME280;18591;47.080;22.214;2023-11-21T08:51:41;99159.59;;;13.41;64.19
21803;BME280;18591;47.080;22.214;2023-11-21T08:53:44;99153.94;;;13.45;64.58
21803;BME280;18591;47.080;22.214;2023-11-21T08:55:46;99149.16;;;13.50;64.35
21803;BME280;18591;47.080;22.214;2023-11-21T08:57:49;99159.78;;;13.54;63.79
21803;BME280;18591;47.080;22.214;2023-11-21T08:59:53;99157.19;;;13.52;62.64
21803;BME280;18591;47.080;22.214;2023-11-21T09:01:57;99149.69;;;13.57;62.99
21803;BME280;18591;47.080;22.214;2023-11-21T09:04:00;99153.09;;;13.61;63.24
21803;BME280;18591;47.080;22.214;2023-11-21T09:06:03;99144.81;;;13.64;63.45
21803;BME280;18591;47.080;22.214;2023-11-21T09:08:06;99137.50;;;13.66;62.73
21803;BME280;18591;47.080;22.214;2023-11-21T09:10:09;99138.66;;;13.62;61.63
21803;BME280;18591;47.080;22.214;2023-11-21T09:12:12;99137.31;;;13.69;62.63
21803;BME280;18591;47.080;22.214;2023-11-21T09:14:14;99142.47;;;13.73;62.62
21803;BME280;18591;47.080;22.214;2023-11-21T09:16:18;99146.91;;;13.75;62.31
21803;BME280;18591;47.080;22.214;2023-11-21T09:18:20;99142.28;;;13.77;62.23
21803;BME280;18591;47.080;22.214;2023-11-21T09:20:23;99133.91;;;13.81;62.55
21803;BME280;18591;47.080;22.214;2023-11-21T09:22:25;99130.34;;;13.81;61.87
21803;BME280;18591;47.080;22.214;2023-11-21T09:24:29;99131.31;;;13.80;61.34
21803;BME280;18591;47.080;22.214;2023-11-21T09:26:32;99130.00;;;13.87;62.25
21803;BME280;18591;47.080;22.214;2023-11-21T09:28:34;99129.13;;;13.86;62.29
21803;BME280;18591;47.080;22.214;2023-11-21T09:30:39;99120.69;;;13.92;62.30
21803;BME280;18591;47.080;22.214;2023-11-21T09:32:42;99131.47;;;13.92;62.24
21803;BME280;18591;47.080;22.214;2023-11-21T09:34:50;99128.78;;;13.92;61.75
21803;BME280;18591;47.080;22.214;2023-11-21T09:36:53;99118.59;;;13.98;61.87
21803;BME280;18591;47.080;22.214;2023-11-21T09:38:55;99121.53;;;13.93;61.91
21803;BME280;18591;47.080;22.214;2023-11-21T09:40:58;99120.50;;;13.96;62.08
21803;BME280;18591;47.080;22.214;2023-11-21T09:43:08;99124.91;;;13.97;61.86
21803;BME280;18591;47.080;22.214;2023-11-21T09:45:35;99125.78;;;13.97;61.74
21803;BME280;18591;47.080;22.214;2023-11-21T09:47:38;99120.31;;;13.99;61.61
21803;BME280;18591;47.080;22.214;2023-11-21T09:49:44;99117.34;;;14.03;61.55
21803;BME280;18591;47.080;22.214;2023-11-21T09:51:49;99116.19;;;14.07;61.79
21803;BME280;18591;47.080;22.214;2023-11-21T09:53:52;99110.78;;;14.07;61.95
21803;BME280;18591;47.080;22.214;2023-11-21T09:55:55;99116.78;;;14.12;62.19
21803;BME280;18591;47.080;22.214;2023-11-21T09:57:58;99114.78;;;14.16;61.62
21803;BME280;18591;47.080;22.214;2023-11-21T10:00:06;99109.38;;;14.16;61.67
21803;BME280;18591;47.080;22.214;2023-11-21T10:02:14;99104.84;;;14.16;61.36
21803;BME280;18591;47.080;22.214;2023-11-21T10:04:20;99102.94;;;14.19;61.50
21803;BME280;18591;47.080;22.214;2023-11-21T10:06:25;99098.19;;;14.22;61.66
21803;BME280;18591;47.080;22.214;2023-11-21T10:08:29;99100.81;;;14.24;61.65
21803;BME280;18591;47.080;22.214;2023-11-21T10:10:53;99097.06;;;14.26;60.94
21803;BME280;18591;47.080;22.214;2023-11-21T10:12:57;99104.00;;;14.30;61.90
21803;BME280;18591;47.080;22.214;2023-11-21T10:15:08;99100.25;;;14.33;61.41
21803;BME280;18591;47.080;22.214;2023-11-21T10:17:12;99101.50;;;14.27;60.16
21803;BME280;18591;47.080;22.214;2023-11-21T10:19:18;99102.78;;;14.36;60.93
21803;BME280;18591;47.080;22.214;2023-11-21T10:21:23;99104.59;;;14.35;60.95
21803;BME280;18591;47.080;22.214;2023-11-21T10:23:27;99099.97;;;14.37;60.91
21803;BME280;18591;47.080;22.214;2023-11-21T10:25:30;99109.66;;;14.42;61.30
21803;BME280;18591;47.080;22.214;2023-11-21T10:27:33;99106.94;;;14.42;60.94
21803;BME280;18591;47.080;22.214;2023-11-21T10:29:36;99108.66;;;14.43;60.82
21803;BME280;18591;47.080;22.214;2023-11-21T10:31:38;99104.25;;;14.42;60.95
21803;BME280;18591;47.080;22.214;2023-11-21T10:33:41;99103.19;;;14.44;60.67
21803;BME280;18591;47.080;22.214;2023-11-21T10:35:46;99095.16;;;14.43;60.25
21803;BME280;18591;47.080;22.214;2023-11-21T10:38:00;99099.69;;;14.42;58.76
21803;BME280;18591;47.080;22.214;2023-11-21T10:40:03;99098.63;;;14.45;59.61
21803;BME280;18591;47.080;22.214;2023-11-21T10:42:08;99092.44;;;14.43;60.12
21803;BME280;18591;47.080;22.214;2023-11-21T10:44:16;99092.25;;;14.46;59.38
21803;BME280;18591;47.080;22.214;2023-11-21T10:46:28;99098.44;;;14.48;59.54